KTVL/TVL METAR and TAF weather

Enter ICAO airport designator
Station Type Date Time Source
KTVL METAR 2019/04/18 10:53 UTC NOAA

KTVL 181053Z AUTO 00000KT 10SM CLR M01/M03 A3036 RMK AO2 SLP260 T10061028


Station Type Date Time Source
KTVL Decoded METAR 2019/04/18 10:53 UTC NOAA

SOUTH LAKE TAHOE AIRPORT, CA, United States (KTVL) 38-53N 119-59W 1925M
Apr 18, 2019 - 06:53 AM EDT / 2019.04.18 1053 UTC
Wind: Calm:0
Visibility: 10 mile(s):0
Sky conditions: clear
Temperature: 30.9 F (-0.6 C)
Dew Point: 27.0 F (-2.8 C)
Relative Humidity: 85%
Pressure (altimeter): 30.36 in. Hg (1028 hPa)
ob: KTVL 181053Z AUTO 00000KT 10SM CLR M01/M03 A3036 RMK AO2 SLP260 T10061028
cycle: 11

Station Type Date Time Source
KTVL TAF 2019/04/18 06:09 UTC NOAA

TAF KTVL 180607Z 1806/1906 VRB03KT P6SM FEW220
FM181900 05007KT P6SM SCT220

Example: see airport list